Time;durP1;ratioP1;P1;durP2;ratioP2;P2;SDS_P1;SDS_P2;PMS_P1;PMS_P2;Temp;Humidity;BMP_temperature;BMP_pressure;BME280_temperature;BME280_humidity;BME280_pressure;Samples;Min_cycle;Max_cycle;Signal;HPM_P1;HPM_P2
2023/06/24 00:00:28;;;;;;;3.93;3.20;;;18.00;99.90;;;;;;5054826;28;20674;-72
2023/06/24 00:02:53;;;;;;;4.67;2.87;;;18.00;99.90;;;;;;5055084;28;20163;-73
2023/06/24 00:05:19;;;;;;;3.10;2.80;;;18.00;99.90;;;;;;5054680;28;20198;-73
2023/06/24 00:07:45;;;;;;;2.97;2.43;;;17.90;99.90;;;;;;5054644;28;20198;-74
2023/06/24 00:10:12;;;;;;;2.57;2.37;;;17.90;99.90;;;;;;5053719;28;20216;-73
2023/06/24 00:12:39;;;;;;;3.77;3.43;;;17.90;99.90;;;;;;5054600;28;20402;-73
2023/06/24 00:15:06;;;;;;;3.60;3.30;;;17.80;99.90;;;;;;5054435;28;20812;-72
2023/06/24 00:17:31;;;;;;;3.27;2.97;;;17.80;99.90;;;;;;5054628;28;20425;-73
2023/06/24 00:19:57;;;;;;;4.80;3.30;;;17.80;99.90;;;;;;5053117;28;20437;-72
2023/06/24 00:22:22;;;;;;;4.90;3.60;;;17.70;99.90;;;;;;5053993;28;20163;-73
2023/06/24 00:24:48;;;;;;;3.23;2.87;;;17.70;99.90;;;;;;5053031;28;20174;-72
2023/06/24 00:27:13;;;;;;;4.00;3.33;;;17.70;99.90;;;;;;5054069;28;20191;-74
2023/06/24 00:29:39;;;;;;;3.47;3.17;;;17.70;99.90;;;;;;5056548;28;20220;-73
2023/06/24 00:32:05;;;;;;;4.97;3.10;;;17.70;99.90;;;;;;5053813;28;20167;-73
2023/06/24 00:34:30;;;;;;;7.97;3.30;;;17.70;99.90;;;;;;5053856;28;20647;-73
2023/06/24 00:36:56;;;;;;;4.30;3.90;;;17.60;99.90;;;;;;5053737;28;20418;-73
2023/06/24 00:39:22;;;;;;;3.87;2.97;;;17.60;99.90;;;;;;5053875;28;20194;-72
2023/06/24 00:41:48;;;;;;;3.40;3.10;;;17.60;99.90;;;;;;5054159;28;20154;-72
2023/06/24 00:44:14;;;;;;;5.97;3.93;;;17.60;99.90;;;;;;5052727;28;20467;-73
2023/06/24 00:46:39;;;;;;;4.20;3.73;;;17.50;99.90;;;;;;5053645;28;20191;-73
2023/06/24 00:49:05;;;;;;;5.63;3.90;;;17.50;99.90;;;;;;5053564;28;20762;-73
2023/06/24 00:51:32;;;;;;;5.13;4.00;;;17.40;99.90;;;;;;5053926;28;20174;-73
2023/06/24 00:53:58;;;;;;;6.63;4.63;;;17.40;99.90;;;;;;5053889;28;20605;-72
2023/06/24 00:56:28;;;;;;;9.43;4.13;;;17.40;99.90;;;;;;5053289;28;20418;-72
2023/06/24 00:58:54;;;;;;;11.50;3.77;;;17.30;99.90;;;;;;5053794;28;20584;-72
2023/06/24 01:01:20;;;;;;;6.10;4.73;;;17.30;99.90;;;;;;5053824;28;20445;-72
2023/06/24 01:03:46;;;;;;;9.63;5.57;;;17.30;99.90;;;;;;5053739;28;20432;-72
2023/06/24 01:06:13;;;;;;;4.73;4.03;;;17.20;99.90;;;;;;5053383;28;20434;-72
2023/06/24 01:08:39;;;;;;;5.90;4.57;;;17.20;99.90;;;;;;5053583;28;20445;-71
2023/06/24 01:11:04;;;;;;;4.77;3.70;;;17.30;99.90;;;;;;5053869;28;20402;-70
2023/06/24 01:13:30;;;;;;;5.67;4.50;;;17.20;99.90;;;;;;5053552;28;20195;-71
2023/06/24 01:16:06;;;;;;;5.20;4.10;;;17.30;99.90;;;;;;5053316;28;20575;-71
2023/06/24 01:18:48;;;;;;;5.57;5.07;;;17.30;99.90;;;;;;5053508;28;20155;-73
2023/06/24 01:21:31;;;;;;;4.97;4.20;;;17.30;99.90;;;;;;5053237;28;20805;-72
2023/06/24 01:24:03;;;;;;;6.00;4.10;;;17.30;99.90;;;;;;5053304;28;20398;-73
2023/06/24 01:26:42;;;;;;;9.73;5.30;;;17.30;99.90;;;;;;5052641;28;20429;-72
2023/06/24 01:29:24;;;;;;;5.97;3.97;;;17.20;99.90;;;;;;5053275;28;20440;-72
2023/06/24 01:32:15;;;;;;;4.03;3.57;;;17.20;99.90;;;;;;5053250;28;20451;-73
2023/06/24 01:34:48;;;;;;;5.83;4.60;;;17.10;99.90;;;;;;5053083;28;20402;-72
2023/06/24 01:37:25;;;;;;;5.70;4.47;;;17.10;99.90;;;;;;5052813;28;20512;-73
2023/06/24 01:40:00;;;;;;;3.60;3.30;;;17.10;99.90;;;;;;5052918;28;20829;-72
2023/06/24 01:42:30;;;;;;;4.17;3.73;;;17.10;99.90;;;;;;5052943;28;20389;-72
2023/06/24 01:44:58;;;;;;;5.47;3.90;;;17.00;99.90;;;;;;5052516;28;20402;-72
2023/06/24 01:47:27;;;;;;;4.33;3.37;;;17.00;99.90;;;;;;5052522;28;20832;-73
2023/06/24 01:49:55;;;;;;;5.93;4.37;;;17.00;99.90;;;;;;5052539;28;20559;-72
2023/06/24 01:52:26;;;;;;;8.20;4.23;;;17.00;99.90;;;;;;5052468;28;20959;-72
2023/06/24 01:54:53;;;;;;;5.93;3.80;;;16.90;99.90;;;;;;5052413;28;20437;-73
2023/06/24 01:57:20;;;;;;;5.97;4.63;;;16.90;99.90;;;;;;5051229;28;20433;-72
2023/06/24 01:59:48;;;;;;;3.80;3.40;;;16.90;99.90;;;;;;5052392;28;20544;-73
2023/06/24 02:02:14;;;;;;;6.90;4.20;;;16.90;99.90;;;;;;5052442;28;20404;-72
2023/06/24 02:04:40;;;;;;;4.80;4.40;;;16.80;99.90;;;;;;5052340;28;20410;-73
2023/06/24 02:07:08;;;;;;;5.50;4.70;;;16.80;99.90;;;;;;5051917;28;20444;-73
2023/06/24 02:09:34;;;;;;;5.67;4.83;;;16.80;99.90;;;;;;5052414;28;20475;-72
2023/06/24 02:12:03;;;;;;;8.50;5.30;;;16.60;99.90;;;;;;5052285;28;20407;-72
2023/06/24 02:14:30;;;;;;;5.87;4.77;;;16.60;99.90;;;;;;5051074;28;20422;-72
2023/06/24 02:16:58;;;;;;;6.80;5.67;;;16.60;99.90;;;;;;5051880;28;20437;-72
2023/06/24 02:19:29;;;;;;;5.30;4.70;;;16.60;99.90;;;;;;5052159;28;20499;-72
2023/06/24 02:21:59;;;;;;;6.50;4.90;;;16.60;99.90;;;;;;5052056;28;20408;-71
2023/06/24 02:24:26;;;;;;;6.33;5.20;;;16.60;99.90;;;;;;5052049;28;20401;-72
2023/06/24 02:26:52;;;;;;;6.10;5.60;;;16.60;99.90;;;;;;5051848;28;20420;-72
2023/06/24 02:29:19;;;;;;;5.90;5.30;;;16.50;99.90;;;;;;5052278;28;20530;-72
2023/06/24 02:31:45;;;;;;;6.33;5.70;;;16.60;99.90;;;;;;5051890;28;20405;-74
2023/06/24 02:34:10;;;;;;;9.50;7.07;;;16.50;99.90;;;;;;5051830;28;20428;-72
2023/06/24 02:36:36;;;;;;;8.07;6.87;;;16.50;99.90;;;;;;5051967;28;20674;-72
2023/06/24 02:39:02;;;;;;;7.60;6.70;;;16.60;99.90;;;;;;5052365;28;20232;-73
2023/06/24 02:41:27;;;;;;;10.20;5.90;;;16.70;99.90;;;;;;5052632;28;20163;-73
2023/06/24 02:43:53;;;;;;;6.43;5.70;;;16.70;99.90;;;;;;5052618;28;20167;-73
2023/06/24 02:46:20;;;;;;;6.50;5.90;;;16.70;99.90;;;;;;5052879;28;20265;-72
2023/06/24 02:48:49;;;;;;;5.83;5.30;;;16.70;99.90;;;;;;5052054;28;20166;-73
2023/06/24 02:51:15;;;;;;;7.20;5.90;;;16.70;99.90;;;;;;5051963;28;20406;-72
2023/06/24 02:53:42;;;;;;;8.27;5.90;;;16.70;99.90;;;;;;5051994;28;20421;-74
2023/06/24 02:56:08;;;;;;;9.00;6.40;;;16.70;99.90;;;;;;5051707;28;20441;-72
2023/06/24 02:58:37;;;;;;;6.07;5.47;;;16.80;99.90;;;;;;5051842;28;20755;-72
2023/06/24 03:01:03;;;;;;;6.07;5.47;;;16.80;99.90;;;;;;5051932;28;20449;-72
2023/06/24 03:03:29;;;;;;;6.67;6.07;;;16.70;99.90;;;;;;5050930;28;20757;-72
2023/06/24 03:05:58;;;;;;;7.43;6.63;;;16.60;99.90;;;;;;5051737;28;20191;-72
2023/06/24 03:08:24;;;;;;;6.83;6.10;;;16.60;99.90;;;;;;5051937;28;20439;-73
2023/06/24 03:10:54;;;;;;;7.57;6.77;;;16.50;99.90;;;;;;5050373;28;20405;-73
2023/06/24 03:13:19;;;;;;;6.47;5.87;;;16.60;99.90;;;;;;5051719;28;20500;-73
2023/06/24 03:15:45;;;;;;;8.97;7.10;;;16.60;99.90;;;;;;5051383;28;20810;-72
2023/06/24 03:18:11;;;;;;;8.10;5.70;;;16.60;99.90;;;;;;5050426;28;20636;-72
2023/06/24 03:20:38;;;;;;;8.37;5.90;;;16.60;99.90;;;;;;5051858;28;20286;-73
2023/06/24 03:23:06;;;;;;;8.70;6.90;;;16.60;99.90;;;;;;5051711;28;20404;-73
2023/06/24 03:25:32;;;;;;;9.33;6.80;;;16.60;99.90;;;;;;5050101;28;21182;-72
2023/06/24 03:27:58;;;;;;;6.77;6.13;;;16.70;99.90;;;;;;5051616;28;20441;-72
2023/06/24 03:30:24;;;;;;;7.63;6.77;;;16.60;99.90;;;;;;5051677;28;20408;-72
2023/06/24 03:32:49;;;;;;;8.17;6.67;;;16.60;99.90;;;;;;5050472;28;20414;-73
2023/06/24 03:35:15;;;;;;;10.90;6.97;;;16.60;99.90;;;;;;5051365;28;20186;-72
2023/06/24 03:37:41;;;;;;;10.40;7.37;;;16.70;99.90;;;;;;5051714;28;20202;-72
2023/06/24 03:40:08;;;;;;;7.60;6.87;;;16.70;99.90;;;;;;5051537;28;20186;-73
2023/06/24 03:42:33;;;;;;;6.80;6.10;;;16.70;99.90;;;;;;5051603;28;20640;-73
2023/06/24 03:44:59;;;;;;;6.93;5.63;;;16.80;99.90;;;;;;5051001;28;20405;-72
2023/06/24 03:47:24;;;;;;;7.90;7.10;;;16.80;99.90;;;;;;5055119;28;20179;-73
2023/06/24 03:49:50;;;;;;;9.43;6.27;;;16.70;99.90;;;;;;5055210;28;20175;-73
2023/06/24 03:52:17;;;;;;;7.37;6.57;;;16.80;99.90;;;;;;5055099;28;20198;-72
2023/06/24 03:54:42;;;;;;;8.17;6.83;;;16.70;99.90;;;;;;5054989;28;20178;-73
2023/06/24 03:57:08;;;;;;;8.10;6.33;;;16.70;99.90;;;;;;5054778;28;20429;-73
2023/06/24 03:59:34;;;;;;;9.43;6.60;;;16.70;99.90;;;;;;5054896;28;20191;-72
2023/06/24 04:02:00;;;;;;;7.47;6.77;;;16.70;99.90;;;;;;5054919;28;20217;-73
2023/06/24 04:04:26;;;;;;;8.23;7.50;;;16.70;99.90;;;;;;5054864;28;20174;-73
2023/06/24 04:06:51;;;;;;;9.03;6.50;;;16.80;99.90;;;;;;5054328;28;20930;-72
2023/06/24 04:09:17;;;;;;;8.77;6.47;;;16.80;99.90;;;;;;5054678;28;20178;-73
2023/06/24 04:11:42;;;;;;;7.47;5.50;;;16.80;99.90;;;;;;5054719;28;20173;-73
2023/06/24 04:14:09;;;;;;;8.00;6.50;;;16.90;99.90;;;;;;5054900;28;20248;-73
2023/06/24 04:16:35;;;;;;;6.53;5.60;;;17.00;99.90;;;;;;5054627;28;20206;-72
2023/06/24 04:19:01;;;;;;;8.03;5.93;;;17.00;99.90;;;;;;5055580;28;20416;-73
2023/06/24 04:21:27;;;;;;;6.80;5.57;;;17.10;99.90;;;;;;5054627;28;20417;-72
2023/06/24 04:23:53;;;;;;;6.47;5.70;;;17.20;99.90;;;;;;5054537;28;20417;-73
2023/06/24 04:26:18;;;;;;;6.63;6.03;;;17.30;99.90;;;;;;5054269;28;20240;-73
2023/06/24 04:28:44;;;;;;;13.33;6.13;;;17.30;99.90;;;;;;5053371;28;20701;-73
2023/06/24 04:31:09;;;;;;;9.10;6.00;;;17.40;99.90;;;;;;5054703;28;20175;-72
2023/06/24 04:33:35;;;;;;;7.43;5.53;;;17.40;99.90;;;;;;5053960;28;20162;-73
2023/06/24 04:36:01;;;;;;;6.93;6.30;;;17.50;99.90;;;;;;5053607;28;20195;-72
2023/06/24 04:38:26;;;;;;;7.43;6.20;;;17.50;99.90;;;;;;5053917;28;20175;-72
2023/06/24 04:40:52;;;;;;;6.00;5.40;;;17.60;99.90;;;;;;5053683;28;20445;-73
2023/06/24 04:43:18;;;;;;;6.83;5.90;;;17.70;99.90;;;;;;5053818;28;20216;-72
2023/06/24 04:45:44;;;;;;;6.67;5.90;;;17.70;99.90;;;;;;5053297;28;20406;-71
2023/06/24 04:48:09;;;;;;;7.30;5.60;;;17.80;99.90;;;;;;5053691;28;20186;-72
2023/06/24 04:50:35;;;;;;;5.70;5.10;;;17.90;99.90;;;;;;5053622;28;20167;-72
2023/06/24 04:53:01;;;;;;;6.43;5.27;;;18.00;99.90;;;;;;5053830;28;20175;-73
2023/06/24 04:55:29;;;;;;;8.63;6.10;;;18.10;99.90;;;;;;5053056;28;20190;-72
2023/06/24 04:57:55;;;;;;;12.67;7.33;;;18.20;99.90;;;;;;5053440;28;20409;-72
2023/06/24 05:00:23;;;;;;;7.63;6.20;;;18.30;99.90;;;;;;5053308;28;20453;-72
2023/06/24 05:02:48;;;;;;;9.77;6.70;;;18.40;99.90;;;;;;5053481;28;20208;-72
2023/06/24 05:05:14;;;;;;;7.53;6.80;;;18.50;99.90;;;;;;5053667;28;20401;-72
2023/06/24 05:07:39;;;;;;;6.50;5.90;;;18.70;99.90;;;;;;5053396;28;20198;-73
2023/06/24 05:10:05;;;;;;;6.27;5.00;;;18.90;99.90;;;;;;5053517;28;20254;-74
2023/06/24 05:12:31;;;;;;;6.50;5.20;;;19.10;99.90;;;;;;5053358;28;20175;-72
2023/06/24 05:14:56;;;;;;;6.53;5.20;;;19.20;99.90;;;;;;5053042;28;20715;-72
2023/06/24 05:17:22;;;;;;;8.30;5.80;;;19.40;99.90;;;;;;5053036;28;20221;-72
2023/06/24 05:19:47;;;;;;;8.73;5.90;;;19.60;99.90;;;;;;5051938;28;20671;-73
2023/06/24 05:22:13;;;;;;;6.53;5.70;;;19.70;99.90;;;;;;5053435;28;20163;-74
2023/06/24 05:24:40;;;;;;;5.53;5.03;;;19.90;99.90;;;;;;5053392;28;20574;-73
2023/06/24 05:27:06;;;;;;;7.87;6.37;;;20.10;99.90;;;;;;5053090;28;20651;-72
2023/06/24 05:29:33;;;;;;;6.10;5.50;;;20.20;99.90;;;;;;5052157;28;20406;-74
2023/06/24 05:31:59;;;;;;;6.37;5.67;;;20.40;99.90;;;;;;5053241;28;20412;-73
2023/06/24 05:34:25;;;;;;;6.37;5.70;;;20.60;99.90;;;;;;5053197;28;20413;-73
2023/06/24 05:36:50;;;;;;;8.10;6.07;;;20.80;99.90;;;;;;5052451;28;20429;-73
2023/06/24 05:39:17;;;;;;;6.40;5.13;;;21.00;99.90;;;;;;5052611;28;20167;-72
2023/06/24 05:41:42;;;;;;;7.90;5.70;;;21.20;99.90;;;;;;5052653;28;20179;-72
2023/06/24 05:44:09;;;;;;;6.73;6.00;;;21.30;99.90;;;;;;5052981;28;20463;-74
2023/06/24 05:46:36;;;;;;;9.03;6.70;;;21.40;99.90;;;;;;5052153;28;20202;-73
2023/06/24 05:49:01;;;;;;;8.07;6.30;;;21.60;99.90;;;;;;5052949;28;20428;-74
2023/06/24 05:51:27;;;;;;;8.10;7.30;;;21.70;99.90;;;;;;5052830;28;20949;-73
2023/06/24 05:53:52;;;;;;;8.37;5.50;;;21.90;99.90;;;;;;5053288;28;20174;-73
2023/06/24 05:56:19;;;;;;;6.20;5.60;;;22.00;99.90;;;;;;5052682;28;20237;-74
2023/06/24 05:58:44;;;;;;;7.13;5.70;;;22.10;99.90;;;;;;5053156;28;20178;-74
2023/06/24 06:01:10;;;;;;;7.43;4.33;;;22.30;99.90;;;;;;5051667;28;20461;-73
2023/06/24 06:03:36;;;;;;;5.50;4.20;;;22.60;99.90;;;;;;5052380;28;20163;-73
2023/06/24 06:06:02;;;;;;;7.43;5.03;;;22.90;99.90;;;;;;5051967;28;20183;-73
2023/06/24 06:08:27;;;;;;;5.07;4.37;;;23.20;99.90;;;;;;5051321;28;20179;-73
2023/06/24 06:10:53;;;;;;;7.93;5.30;;;23.70;99.90;;;;;;5052207;28;20169;-74
2023/06/24 06:13:18;;;;;;;4.90;4.30;;;24.00;99.90;;;;;;5052191;28;20171;-74
2023/06/24 06:15:44;;;;;;;4.37;3.67;;;24.50;99.90;;;;;;5051871;28;20178;-74
2023/06/24 06:18:09;;;;;;;6.47;3.87;;;24.90;99.90;;;;;;5053296;28;20531;-74
2023/06/24 06:20:35;;;;;;;4.87;4.37;;;25.30;99.90;;;;;;5051810;28;20659;-74
2023/06/24 06:23:01;;;;;;;8.03;4.07;;;25.70;99.90;;;;;;5051641;28;20181;-74
2023/06/24 06:25:26;;;;;;;4.40;4.00;;;25.90;99.90;;;;;;5051457;28;20198;-76
2023/06/24 06:27:52;;;;;;;4.60;4.20;;;26.40;99.90;;;;;;5052691;28;20245;-74
2023/06/24 06:30:17;;;;;;;4.60;3.50;;;27.00;99.90;;;;;;5052738;28;20174;-74
2023/06/24 06:32:43;;;;;;;4.10;3.67;;;27.30;99.90;;;;;;5052969;28;20225;-75
2023/06/24 06:35:08;;;;;;;4.20;3.80;;;27.30;99.90;;;;;;5052098;28;20254;-74
2023/06/24 06:37:34;;;;;;;4.43;4.03;;;27.50;99.90;;;;;;5051606;28;20579;-74
2023/06/24 06:40:00;;;;;;;4.77;3.87;;;28.00;99.90;;;;;;5051752;28;20205;-74
2023/06/24 06:42:25;;;;;;;4.90;3.87;;;28.80;99.90;;;;;;5051689;28;20209;-74
2023/06/24 06:44:51;;;;;;;4.20;3.70;;;29.70;93.80;;;;;;5051372;28;20189;-74
2023/06/24 06:47:16;;;;;;;4.20;3.30;;;30.70;91.40;;;;;;5051522;28;20696;-74
2023/06/24 06:49:42;;;;;;;3.47;3.17;;;31.70;81.50;;;;;;5051757;28;20528;-75
2023/06/24 06:52:07;;;;;;;4.13;3.43;;;32.50;69.30;;;;;;5051750;28;20164;-74
2023/06/24 06:54:33;;;;;;;6.57;4.33;;;33.30;61.90;;;;;;5051648;28;20167;-75
2023/06/24 06:57:03;;;;;;;5.27;4.60;;;34.30;58.70;;;;;;5051253;28;20222;-75
2023/06/24 06:59:29;;;;;;;5.50;5.00;;;35.20;56.50;;;;;;5051699;28;20245;-75
2023/06/24 07:01:55;;;;;;;4.10;3.70;;;35.90;53.10;;;;;;5051730;28;20380;-75
2023/06/24 07:04:20;;;;;;;3.13;2.90;;;36.50;49.70;;;;;;5051823;28;20387;-75
2023/06/24 07:06:46;;;;;;;4.40;3.67;;;36.70;47.20;;;;;;5050960;28;20193;-77
2023/06/24 07:09:11;;;;;;;6.40;4.80;;;36.60;45.40;;;;;;5051986;28;20167;-75
2023/06/24 07:11:37;;;;;;;5.83;5.33;;;36.50;43.20;;;;;;5052715;28;20167;-77
2023/06/24 07:14:02;;;;;;;7.20;6.50;;;36.60;42.20;;;;;;5053526;28;20228;-76
2023/06/24 07:16:28;;;;;;;3.73;3.43;;;37.20;42.50;;;;;;5053328;28;20331;-77
2023/06/24 07:18:53;;;;;;;3.60;3.23;;;37.90;41.80;;;;;;5054644;28;20178;-72
2023/06/24 07:21:19;;;;;;;4.03;2.97;;;38.20;40.10;;;;;;5056007;28;20210;-72
2023/06/24 07:23:45;;;;;;;3.60;3.30;;;38.00;39.40;;;;;;5055550;28;20195;-72
2023/06/24 07:26:11;;;;;;;5.53;2.90;;;38.10;39.50;;;;;;5055711;28;20265;-73
2023/06/24 07:28:36;;;;;;;3.33;3.07;;;38.50;39.30;;;;;;5055516;28;20502;-72
2023/06/24 07:31:02;;;;;;;4.03;3.73;;;38.80;38.10;;;;;;5056661;28;20536;-75
2023/06/24 07:33:30;;;;;;;5.73;3.03;;;39.00;37.40;;;;;;5056136;28;20199;-74
2023/06/24 07:35:56;;;;;;;3.70;3.40;;;39.30;37.20;;;;;;5057745;28;20190;-74
2023/06/24 07:38:21;;;;;;;3.80;2.97;;;39.40;36.80;;;;;;5057742;28;20873;-73
2023/06/24 07:40:47;;;;;;;3.13;2.93;;;39.50;36.50;;;;;;5055631;28;20202;-74
2023/06/24 07:43:12;;;;;;;3.43;2.70;;;39.80;36.70;;;;;;5055349;28;20171;-76
2023/06/24 07:45:38;;;;;;;3.23;2.93;;;40.40;36.90;;;;;;5053250;28;20669;-73
2023/06/24 07:48:04;;;;;;;3.57;3.27;;;41.00;36.40;;;;;;5056894;28;20167;-75
2023/06/24 07:50:31;;;;;;;2.80;2.60;;;41.60;34.80;;;;;;5057772;28;20171;-74
2023/06/24 07:52:56;;;;;;;2.80;2.60;;;42.00;33.20;;;;;;5055376;28;20531;-76
2023/06/24 07:55:22;;;;;;;3.10;2.90;;;42.50;33.40;;;;;;5054659;28;20606;-74
2023/06/24 07:57:48;;;;;;;3.27;3.00;;;43.10;31.80;;;;;;5054569;28;20194;-74
2023/06/24 08:00:15;;;;;;;3.37;3.07;;;43.60;31.90;;;;;;5054592;28;20195;-74
2023/06/24 08:02:43;;;;;;;4.37;3.60;;;44.10;31.50;;;;;;5053253;28;20174;-73
2023/06/24 08:05:09;;;;;;;3.90;3.60;;;44.70;30.40;;;;;;5054135;28;20743;-75
2023/06/24 08:07:35;;;;;;;3.00;2.80;;;45.00;30.00;;;;;;5054517;28;20514;-76
2023/06/24 08:10:01;;;;;;;2.90;2.60;;;45.40;29.00;;;;;;5054792;28;20177;-78
2023/06/24 08:12:27;;;;;;;3.40;3.00;;;45.70;28.90;;;;;;5057453;28;20885;-78
2023/06/24 08:14:52;;;;;;;3.83;3.53;;;45.90;28.50;;;;;;5057887;28;20178;-78
2023/06/24 08:17:18;;;;;;;2.93;2.60;;;46.00;27.90;;;;;;5059507;28;20190;-76
2023/06/24 08:19:43;;;;;;;4.50;3.20;;;45.70;27.90;;;;;;5054179;28;20198;-74
2023/06/24 08:22:09;;;;;;;3.07;2.87;;;45.60;28.00;;;;;;5054409;28;20163;-74
2023/06/24 08:24:35;;;;;;;3.53;3.20;;;45.80;28.10;;;;;;5054355;28;20651;-76
2023/06/24 08:27:01;;;;;;;4.60;3.60;;;45.90;28.50;;;;;;5053885;28;20194;-75
2023/06/24 08:29:26;;;;;;;3.77;3.47;;;46.10;27.80;;;;;;5054002;28;20371;-75
2023/06/24 08:31:52;;;;;;;3.50;3.20;;;46.50;27.70;;;;;;5053449;28;20159;-77
2023/06/24 08:34:17;;;;;;;3.57;3.27;;;47.00;27.50;;;;;;5054868;28;20167;-77
2023/06/24 08:36:43;;;;;;;3.50;3.27;;;47.50;27.10;;;;;;5055353;28;20345;-76
2023/06/24 08:39:08;;;;;;;3.70;3.40;;;48.00;26.90;;;;;;5055947;28;20163;-76
2023/06/24 08:41:34;;;;;;;4.20;3.90;;;48.50;26.70;;;;;;5054830;28;20222;-75
2023/06/24 08:44:00;;;;;;;3.70;3.40;;;48.80;26.00;;;;;;5053953;28;20258;-75
2023/06/24 08:46:27;;;;;;;3.80;3.50;;;49.10;26.00;;;;;;5053452;28;20190;-75
2023/06/24 08:49:21;;;;;;;4.30;3.70;;;49.40;26.00;;;;;;5053455;28;20198;-75
2023/06/24 08:51:53;;;;;;;3.87;3.57;;;49.90;25.80;;;;;;5047900;28;20413;-75
2023/06/24 08:54:19;;;;;;;4.03;3.73;;;50.30;25.70;;;;;;5053492;28;20781;-75
2023/06/24 08:56:45;;;;;;;3.57;3.27;;;50.60;25.70;;;;;;5054276;28;20404;-76
2023/06/24 08:59:10;;;;;;;3.83;3.40;;;50.90;25.40;;;;;;5053895;28;20893;-75
2023/06/24 09:01:36;;;;;;;4.00;3.60;;;51.10;24.70;;;;;;5055272;28;20170;-77
2023/06/24 09:04:02;;;;;;;4.10;3.80;;;51.50;24.60;;;;;;5052595;28;20174;-75
2023/06/24 09:06:28;;;;;;;4.23;3.60;;;51.90;24.40;;;;;;5052994;28;20214;-75
2023/06/24 09:08:57;;;;;;;4.00;3.70;;;52.20;23.90;;;;;;5053148;28;20452;-75
2023/06/24 09:11:27;;;;;;;5.03;4.63;;;52.60;24.20;;;;;;5052505;28;20174;-75
2023/06/24 09:13:57;;;;;;;3.90;3.70;;;52.90;23.70;;;;;;5053217;28;20408;-76
2023/06/24 09:16:22;;;;;;;5.37;4.87;;;53.10;23.80;;;;;;5052667;28;20472;-74
2023/06/24 09:18:49;;;;;;;4.23;3.93;;;53.30;23.60;;;;;;5052833;28;20437;-75
2023/06/24 09:21:25;;;;;;;4.27;3.97;;;53.60;23.80;;;;;;5053119;28;20163;-76
2023/06/24 09:23:54;;;;;;;3.90;3.60;;;53.90;23.10;;;;;;5052986;28;20424;-75
2023/06/24 09:26:23;;;;;;;4.03;3.70;;;54.00;22.40;;;;;;5052991;28;20417;-77
2023/06/24 09:28:49;;;;;;;3.97;3.77;;;54.30;22.90;;;;;;5053672;28;20410;-76
2023/06/24 09:31:15;;;;;;;4.93;3.97;;;54.40;22.90;;;;;;5053646;28;20456;-76
2023/06/24 09:33:40;;;;;;;4.57;4.27;;;54.70;22.80;;;;;;5053695;28;20199;-77
2023/06/24 09:36:06;;;;;;;4.40;4.10;;;54.90;22.20;;;;;;5053572;28;20182;-76
2023/06/24 09:38:41;;;;;;;4.73;4.43;;;55.10;22.30;;;;;;5053252;28;20491;-75
2023/06/24 09:41:08;;;;;;;4.50;4.00;;;55.40;22.10;;;;;;5052641;28;20161;-76
2023/06/24 09:43:39;;;;;;;4.70;4.30;;;55.60;22.10;;;;;;5052548;28;20409;-75
2023/06/24 09:46:05;;;;;;;4.97;4.57;;;55.70;21.70;;;;;;5052134;28;20432;-76
2023/06/24 09:48:32;;;;;;;4.63;4.33;;;55.90;21.80;;;;;;5052509;28;20937;-76
2023/06/24 09:51:01;;;;;;;4.60;4.30;;;55.90;21.70;;;;;;5052438;28;20961;-75
2023/06/24 09:53:32;;;;;;;4.07;3.80;;;55.90;21.10;;;;;;5052439;28;20424;-76
2023/06/24 09:56:00;;;;;;;4.73;4.43;;;55.80;21.10;;;;;;5052080;28;20416;-75
2023/06/24 09:58:27;;;;;;;4.40;4.20;;;56.00;20.80;;;;;;5052353;28;20408;-75
2023/06/24 10:00:55;;;;;;;4.23;3.93;;;55.10;20.20;;;;;;5052364;28;20416;-74
2023/06/24 10:03:21;;;;;;;5.27;4.97;;;54.80;20.60;;;;;;5052594;28;20776;-77
2023/06/24 10:05:47;;;;;;;4.47;4.17;;;55.00;20.60;;;;;;5052349;28;20405;-76
2023/06/24 10:08:14;;;;;;;5.37;4.93;;;55.50;20.70;;;;;;5052221;28;20512;-76
2023/06/24 10:10:39;;;;;;;4.83;4.50;;;55.90;20.20;;;;;;5052150;28;20459;-77
2023/06/24 10:13:06;;;;;;;4.50;4.23;;;56.20;19.80;;;;;;5052337;28;20432;-77
2023/06/24 10:15:32;;;;;;;4.50;4.30;;;56.40;20.00;;;;;;5052102;28;20459;-75
2023/06/24 10:18:02;;;;;;;5.63;5.23;;;56.70;20.10;;;;;;5051776;28;20292;-75
2023/06/24 10:20:28;;;;;;;6.03;5.63;;;57.10;20.10;;;;;;5052071;28;20902;-77
2023/06/24 10:22:54;;;;;;;4.57;4.27;;;57.30;18.70;;;;;;5051992;28;20478;-75
2023/06/24 10:25:21;;;;;;;4.30;4.00;;;56.50;17.90;;;;;;5051793;28;20270;-75
2023/06/24 10:27:53;;;;;;;5.10;4.70;;;56.40;19.20;;;;;;5051920;28;20193;-76
2023/06/24 10:30:20;;;;;;;5.30;4.90;;;56.60;19.70;;;;;;5051953;28;20452;-76
2023/06/24 10:32:50;;;;;;;6.30;5.43;;;57.10;19.90;;;;;;5051893;28;20397;-75
2023/06/24 10:35:31;;;;;;;5.47;5.07;;;57.50;18.70;;;;;;5051593;28;20809;-75
2023/06/24 10:38:01;;;;;;;5.87;5.47;;;57.70;19.00;;;;;;5050405;28;20910;-75
2023/06/24 10:40:38;;;;;;;5.27;4.87;;;58.00;18.90;;;;;;5051867;28;20411;-76
2023/06/24 10:43:23;;;;;;;4.70;4.40;;;57.70;17.20;;;;;;5051874;28;20904;-75
2023/06/24 10:45:50;;;;;;;5.27;4.97;;;57.70;17.50;;;;;;5051462;28;20429;-76
2023/06/24 10:48:19;;;;;;;5.90;3.40;;;56.90;16.90;;;;;;5051627;28;20462;-74
2023/06/24 10:50:45;;;;;;;4.60;4.30;;;55.80;16.80;;;;;;5051291;28;20633;-74
2023/06/24 10:53:12;;;;;;;4.70;4.40;;;55.30;17.40;;;;;;5051509;28;20893;-75
2023/06/24 10:55:37;;;;;;;4.50;4.20;;;53.80;18.10;;;;;;5055218;28;20659;-74
2023/06/24 10:58:11;;;;;;;4.07;3.87;;;54.10;19.40;;;;;;5055519;28;20396;-77
2023/06/24 11:00:36;;;;;;;3.80;3.60;;;55.00;19.50;;;;;;5055722;28;20565;-75
2023/06/24 11:03:16;;;;;;;4.67;4.10;;;55.80;19.60;;;;;;5055761;28;20409;-75
2023/06/24 11:05:43;;;;;;;3.90;3.70;;;56.20;17.70;;;;;;5055629;28;20223;-78
2023/06/24 11:08:09;;;;;;;4.20;3.90;;;56.50;18.60;;;;;;5055565;28;20558;-75
2023/06/24 11:10:43;;;;;;;5.30;4.90;;;56.70;18.50;;;;;;5054456;28;20536;-74
2023/06/24 11:13:09;;;;;;;4.00;3.80;;;57.20;18.70;;;;;;5055658;28;20288;-75
2023/06/24 11:15:34;;;;;;;5.43;5.03;;;57.50;18.50;;;;;;5055181;28;20483;-75
2023/06/24 11:18:04;;;;;;;4.93;4.63;;;57.80;18.60;;;;;;5055464;28;20244;-76
2023/06/24 11:20:29;;;;;;;5.00;4.63;;;57.50;17.00;;;;;;5055463;28;20212;-75
2023/06/24 11:22:55;;;;;;;4.93;4.53;;;57.10;17.50;;;;;;5055357;28;20986;-75
2023/06/24 11:25:22;;;;;;;4.83;4.53;;;57.30;18.10;;;;;;5055105;28;20167;-74
2023/06/24 11:27:50;;;;;;;4.37;4.10;;;57.60;18.20;;;;;;5055274;28;20259;-75
2023/06/24 11:30:16;;;;;;;4.93;4.63;;;57.80;18.70;;;;;;5053896;28;20444;-74
2023/06/24 11:32:44;;;;;;;4.10;3.90;;;58.00;18.50;;;;;;5054123;28;20940;-75
2023/06/24 11:35:12;;;;;;;4.40;4.10;;;58.10;18.20;;;;;;5054884;28;20466;-75
2023/06/24 11:37:42;;;;;;;4.20;4.00;;;58.10;18.10;;;;;;5054977;28;20781;-75
2023/06/24 11:40:09;;;;;;;5.00;4.70;;;58.00;18.00;;;;;;5055195;28;20411;-75
2023/06/24 11:42:39;;;;;;;5.20;4.80;;;58.10;18.30;;;;;;5054975;28;20440;-77
2023/06/24 11:45:06;;;;;;;6.67;6.27;;;58.20;18.00;;;;;;5053439;28;20470;-76
2023/06/24 11:47:36;;;;;;;5.70;5.20;;;58.30;18.20;;;;;;5054882;28;20432;-74
2023/06/24 11:50:04;;;;;;;5.37;5.07;;;58.40;17.90;;;;;;5054849;28;20451;-76
2023/06/24 11:52:36;;;;;;;4.63;4.43;;;58.40;17.40;;;;;;5054768;28;20401;-74
2023/06/24 11:55:02;;;;;;;4.00;3.80;;;58.50;17.70;;;;;;5054572;28;20401;-75
2023/06/24 11:57:49;;;;;;;4.90;4.60;;;58.10;17.40;;;;;;5054902;28;20429;-74
2023/06/24 12:00:15;;;;;;;5.03;4.73;;;58.20;17.90;;;;;;5053007;28;20820;-75
2023/06/24 12:02:41;;;;;;;4.90;4.60;;;58.20;17.70;;;;;;5054647;28;20411;-77
2023/06/24 12:05:06;;;;;;;4.40;4.20;;;58.30;18.20;;;;;;5052329;28;20281;-74
2023/06/24 12:07:32;;;;;;;4.53;4.23;;;58.00;17.50;;;;;;5053823;28;20220;-74
2023/06/24 12:09:57;;;;;;;4.90;4.60;;;58.10;18.40;;;;;;5054386;28;20199;-74
2023/06/24 12:12:23;;;;;;;5.10;4.80;;;58.00;18.20;;;;;;5054440;28;20185;-76
2023/06/24 12:14:48;;;;;;;5.00;4.70;;;58.00;18.20;;;;;;5054439;28;20543;-74
2023/06/24 12:17:14;;;;;;;4.63;4.33;;;58.00;18.30;;;;;;5053956;28;20178;-75
2023/06/24 12:19:40;;;;;;;5.07;4.77;;;58.00;18.20;;;;;;5053003;28;20178;-74
2023/06/24 12:22:05;;;;;;;4.97;4.67;;;58.00;18.00;;;;;;5053979;28;20589;-76
2023/06/24 12:24:31;;;;;;;4.30;4.00;;;58.10;18.20;;;;;;5054240;28;20224;-74
2023/06/24 12:26:56;;;;;;;5.50;5.00;;;58.00;17.80;;;;;;5053943;28;20190;-74
2023/06/24 12:29:22;;;;;;;5.73;5.33;;;57.30;17.50;;;;;;5053990;28;20718;-75
2023/06/24 12:31:47;;;;;;;4.77;4.50;;;57.10;17.70;;;;;;5054160;28;20166;-72
2023/06/24 12:34:13;;;;;;;4.40;4.10;;;56.40;16.70;;;;;;5054106;28;20169;-75
2023/06/24 12:36:38;;;;;;;5.13;4.73;;;55.10;17.50;;;;;;5052412;28;20186;-74
2023/06/24 12:39:04;;;;;;;3.90;3.70;;;54.90;18.50;;;;;;5053967;28;20163;-75
2023/06/24 12:41:29;;;;;;;4.30;4.00;;;54.90;18.60;;;;;;5053959;28;20175;-74
2023/06/24 12:43:55;;;;;;;4.60;4.30;;;54.90;18.60;;;;;;5053901;28;20563;-74